sensor_id;sensor_type;location;lat;lon;timestamp;temperature;humidity
22645;DHT22;11489;50.834;6.752;2023-08-01T00:00:31;17.20;95.60
22645;DHT22;11489;50.834;6.752;2023-08-01T00:02:57;17.30;95.60
22645;DHT22;11489;50.834;6.752;2023-08-01T00:05:23;17.30;95.60
22645;DHT22;11489;50.834;6.752;2023-08-01T00:07:49;17.30;95.60
22645;DHT22;11489;50.834;6.752;2023-08-01T00:10:14;17.30;95.60
22645;DHT22;11489;50.834;6.752;2023-08-01T00:12:42;17.30;95.60
22645;DHT22;11489;50.834;6.752;2023-08-01T00:15:08;17.30;95.50
22645;DHT22;11489;50.834;6.752;2023-08-01T00:17:34;17.30;95.50
22645;DHT22;11489;50.834;6.752;2023-08-01T00:20:01;17.30;95.50
22645;DHT22;11489;50.834;6.752;2023-08-01T00:22:27;17.30;95.50
22645;DHT22;11489;50.834;6.752;2023-08-01T00:24:53;17.30;95.50
22645;DHT22;11489;50.834;6.752;2023-08-01T00:27:18;17.30;95.50
22645;DHT22;11489;50.834;6.752;2023-08-01T00:29:45;17.30;95.60
22645;DHT22;11489;50.834;6.752;2023-08-01T00:32:10;17.30;95.60
22645;DHT22;11489;50.834;6.752;2023-08-01T00:34:36;17.30;95.60
22645;DHT22;11489;50.834;6.752;2023-08-01T00:37:02;17.30;95.60
22645;DHT22;11489;50.834;6.752;2023-08-01T00:39:27;17.30;95.60
22645;DHT22;11489;50.834;6.752;2023-08-01T00:41:54;17.30;95.50
22645;DHT22;11489;50.834;6.752;2023-08-01T00:44:20;17.40;95.60
22645;DHT22;11489;50.834;6.752;2023-08-01T00:46:45;17.30;95.50
22645;DHT22;11489;50.834;6.752;2023-08-01T00:49:12;17.30;95.50
22645;DHT22;11489;50.834;6.752;2023-08-01T00:51:38;17.30;95.50
22645;DHT22;11489;50.834;6.752;2023-08-01T00:54:03;17.30;95.50
22645;DHT22;11489;50.834;6.752;2023-08-01T00:56:29;17.30;95.50
22645;DHT22;11489;50.834;6.752;2023-08-01T00:58:55;17.30;95.50
22645;DHT22;11489;50.834;6.752;2023-08-01T01:01:20;17.30;95.60
22645;DHT22;11489;50.834;6.752;2023-08-01T01:03:46;17.30;95.60
22645;DHT22;11489;50.834;6.752;2023-08-01T01:08:41;17.30;95.70
22645;DHT22;11489;50.834;6.752;2023-08-01T01:11:07;17.30;95.70
22645;DHT22;11489;50.834;6.752;2023-08-01T01:13:33;17.30;96.00
22645;DHT22;11489;50.834;6.752;2023-08-01T01:15:59;17.30;95.80
22645;DHT22;11489;50.834;6.752;2023-08-01T01:18:25;17.30;95.80
22645;DHT22;11489;50.834;6.752;2023-08-01T01:20:51;17.30;95.80
22645;DHT22;11489;50.834;6.752;2023-08-01T01:23:17;17.30;95.80
22645;DHT22;11489;50.834;6.752;2023-08-01T01:25:45;17.30;95.80
22645;DHT22;11489;50.834;6.752;2023-08-01T01:28:12;17.30;95.70
22645;DHT22;11489;50.834;6.752;2023-08-01T01:30:38;17.30;95.80
22645;DHT22;11489;50.834;6.752;2023-08-01T01:33:04;17.30;95.80
22645;DHT22;11489;50.834;6.752;2023-08-01T01:35:33;17.30;95.80
22645;DHT22;11489;50.834;6.752;2023-08-01T01:38:00;17.30;95.80
22645;DHT22;11489;50.834;6.752;2023-08-01T01:40:29;17.30;95.80
22645;DHT22;11489;50.834;6.752;2023-08-01T01:42:55;17.30;95.70
22645;DHT22;11489;50.834;6.752;2023-08-01T01:45:21;17.30;95.70
22645;DHT22;11489;50.834;6.752;2023-08-01T01:47:46;17.30;95.70
22645;DHT22;11489;50.834;6.752;2023-08-01T01:50:12;17.20;95.60
22645;DHT22;11489;50.834;6.752;2023-08-01T01:52:38;17.20;95.50
22645;DHT22;11489;50.834;6.752;2023-08-01T01:55:04;17.20;95.50
22645;DHT22;11489;50.834;6.752;2023-08-01T01:57:29;17.10;95.50
22645;DHT22;11489;50.834;6.752;2023-08-01T01:59:55;17.10;95.60
22645;DHT22;11489;50.834;6.752;2023-08-01T02:02:21;17.10;95.90
22645;DHT22;11489;50.834;6.752;2023-08-01T02:04:47;17.00;95.60
22645;DHT22;11489;50.834;6.752;2023-08-01T02:07:13;17.00;95.60
22645;DHT22;11489;50.834;6.752;2023-08-01T02:09:40;17.00;95.60
22645;DHT22;11489;50.834;6.752;2023-08-01T02:12:05;17.00;95.70
22645;DHT22;11489;50.834;6.752;2023-08-01T02:14:33;17.00;95.70
22645;DHT22;11489;50.834;6.752;2023-08-01T02:16:59;17.00;95.70
22645;DHT22;11489;50.834;6.752;2023-08-01T02:19:24;16.90;95.90
22645;DHT22;11489;50.834;6.752;2023-08-01T02:21:50;16.90;95.60
22645;DHT22;11489;50.834;6.752;2023-08-01T02:24:16;16.90;95.50
22645;DHT22;11489;50.834;6.752;2023-08-01T02:26:41;16.90;95.40
22645;DHT22;11489;50.834;6.752;2023-08-01T02:29:07;16.80;95.40
22645;DHT22;11489;50.834;6.752;2023-08-01T02:31:33;16.80;95.40
22645;DHT22;11489;50.834;6.752;2023-08-01T02:33:58;16.70;95.40
22645;DHT22;11489;50.834;6.752;2023-08-01T02:36:24;16.70;95.40
22645;DHT22;11489;50.834;6.752;2023-08-01T02:38:49;16.60;95.40
22645;DHT22;11489;50.834;6.752;2023-08-01T02:41:15;16.60;95.30
22645;DHT22;11489;50.834;6.752;2023-08-01T02:43:41;16.60;95.40
22645;DHT22;11489;50.834;6.752;2023-08-01T02:46:06;16.50;95.40
22645;DHT22;11489;50.834;6.752;2023-08-01T02:48:32;16.50;95.40
22645;DHT22;11489;50.834;6.752;2023-08-01T02:50:58;16.50;95.40
22645;DHT22;11489;50.834;6.752;2023-08-01T02:53:24;16.50;95.50
22645;DHT22;11489;50.834;6.752;2023-08-01T02:55:50;16.40;95.50
22645;DHT22;11489;50.834;6.752;2023-08-01T02:58:15;16.40;95.50
22645;DHT22;11489;50.834;6.752;2023-08-01T03:00:41;16.40;95.50
22645;DHT22;11489;50.834;6.752;2023-08-01T03:03:07;16.30;95.50
22645;DHT22;11489;50.834;6.752;2023-08-01T03:05:35;16.30;95.50
22645;DHT22;11489;50.834;6.752;2023-08-01T03:08:01;16.30;95.50
22645;DHT22;11489;50.834;6.752;2023-08-01T03:10:27;16.30;95.50
22645;DHT22;11489;50.834;6.752;2023-08-01T03:12:53;16.30;95.60
22645;DHT22;11489;50.834;6.752;2023-08-01T03:15:19;16.20;95.50
22645;DHT22;11489;50.834;6.752;2023-08-01T03:17:44;16.20;95.50
22645;DHT22;11489;50.834;6.752;2023-08-01T03:20:10;16.20;95.50
22645;DHT22;11489;50.834;6.752;2023-08-01T03:22:40;16.20;95.50
22645;DHT22;11489;50.834;6.752;2023-08-01T03:25:06;16.20;95.50
22645;DHT22;11489;50.834;6.752;2023-08-01T03:27:35;16.10;95.60
22645;DHT22;11489;50.834;6.752;2023-08-01T03:30:01;16.10;95.60
22645;DHT22;11489;50.834;6.752;2023-08-01T03:32:27;16.10;95.60
22645;DHT22;11489;50.834;6.752;2023-08-01T03:34:52;16.10;95.60
22645;DHT22;11489;50.834;6.752;2023-08-01T03:37:18;16.10;95.60
22645;DHT22;11489;50.834;6.752;2023-08-01T03:39:44;16.10;95.90
22645;DHT22;11489;50.834;6.752;2023-08-01T03:42:10;16.00;95.50
22645;DHT22;11489;50.834;6.752;2023-08-01T03:44:35;16.00;95.50
22645;DHT22;11489;50.834;6.752;2023-08-01T03:47:01;16.00;95.50
22645;DHT22;11489;50.834;6.752;2023-08-01T03:49:27;16.00;95.60
22645;DHT22;11489;50.834;6.752;2023-08-01T03:51:52;16.00;95.60
22645;DHT22;11489;50.834;6.752;2023-08-01T03:54:18;16.00;95.60
22645;DHT22;11489;50.834;6.752;2023-08-01T03:56:44;16.00;95.70
22645;DHT22;11489;50.834;6.752;2023-08-01T03:59:12;16.00;95.70
22645;DHT22;11489;50.834;6.752;2023-08-01T04:01:38;16.00;95.70
22645;DHT22;11489;50.834;6.752;2023-08-01T04:04:04;16.00;95.70
22645;DHT22;11489;50.834;6.752;2023-08-01T04:06:30;16.00;95.70
22645;DHT22;11489;50.834;6.752;2023-08-01T04:08:55;16.00;95.70
22645;DHT22;11489;50.834;6.752;2023-08-01T04:11:22;16.00;95.70
22645;DHT22;11489;50.834;6.752;2023-08-01T04:13:48;15.90;95.70
22645;DHT22;11489;50.834;6.752;2023-08-01T04:16:14;15.90;95.80
22645;DHT22;11489;50.834;6.752;2023-08-01T04:18:39;15.90;95.70
22645;DHT22;11489;50.834;6.752;2023-08-01T04:21:06;15.90;95.70
22645;DHT22;11489;50.834;6.752;2023-08-01T04:23:32;15.90;95.70
22645;DHT22;11489;50.834;6.752;2023-08-01T04:25:57;15.90;95.70
22645;DHT22;11489;50.834;6.752;2023-08-01T04:28:25;15.90;95.70
22645;DHT22;11489;50.834;6.752;2023-08-01T04:30:51;15.90;95.60
22645;DHT22;11489;50.834;6.752;2023-08-01T04:33:17;15.90;95.60
22645;DHT22;11489;50.834;6.752;2023-08-01T04:35:43;15.90;95.60
22645;DHT22;11489;50.834;6.752;2023-08-01T04:38:09;15.90;95.60
22645;DHT22;11489;50.834;6.752;2023-08-01T04:40:36;15.80;95.60
22645;DHT22;11489;50.834;6.752;2023-08-01T04:43:02;15.80;95.60
22645;DHT22;11489;50.834;6.752;2023-08-01T04:45:28;15.80;95.60
22645;DHT22;11489;50.834;6.752;2023-08-01T04:47:54;15.80;95.60
22645;DHT22;11489;50.834;6.752;2023-08-01T04:50:20;15.80;95.70
22645;DHT22;11489;50.834;6.752;2023-08-01T04:52:45;15.70;95.60
22645;DHT22;11489;50.834;6.752;2023-08-01T04:55:11;15.70;95.60
22645;DHT22;11489;50.834;6.752;2023-08-01T04:57:36;15.70;95.50
22645;DHT22;11489;50.834;6.752;2023-08-01T05:00:03;15.70;95.50
22645;DHT22;11489;50.834;6.752;2023-08-01T05:02:29;15.70;95.50
22645;DHT22;11489;50.834;6.752;2023-08-01T05:04:54;15.60;95.50
22645;DHT22;11489;50.834;6.752;2023-08-01T05:07:20;15.60;95.50
22645;DHT22;11489;50.834;6.752;2023-08-01T05:09:46;15.60;95.50
22645;DHT22;11489;50.834;6.752;2023-08-01T05:12:11;15.60;95.50
22645;DHT22;11489;50.834;6.752;2023-08-01T05:14:37;15.60;95.60
22645;DHT22;11489;50.834;6.752;2023-08-01T05:17:03;15.50;95.60
22645;DHT22;11489;50.834;6.752;2023-08-01T05:19:29;15.50;95.60
22645;DHT22;11489;50.834;6.752;2023-08-01T05:21:54;15.50;95.50
22645;DHT22;11489;50.834;6.752;2023-08-01T05:24:21;15.50;95.50
22645;DHT22;11489;50.834;6.752;2023-08-01T05:26:47;15.50;95.40
22645;DHT22;11489;50.834;6.752;2023-08-01T05:29:13;15.50;95.40
22645;DHT22;11489;50.834;6.752;2023-08-01T05:31:38;15.40;95.40
22645;DHT22;11489;50.834;6.752;2023-08-01T05:34:04;15.40;95.40
22645;DHT22;11489;50.834;6.752;2023-08-01T05:36:30;15.40;95.50
22645;DHT22;11489;50.834;6.752;2023-08-01T05:38:56;15.40;95.60
22645;DHT22;11489;50.834;6.752;2023-08-01T05:41:21;15.40;95.60
22645;DHT22;11489;50.834;6.752;2023-08-01T05:43:48;15.40;95.80
22645;DHT22;11489;50.834;6.752;2023-08-01T05:46:14;15.40;95.90
22645;DHT22;11489;50.834;6.752;2023-08-01T05:48:40;15.40;96.00
22645;DHT22;11489;50.834;6.752;2023-08-01T05:51:05;15.50;96.10
22645;DHT22;11489;50.834;6.752;2023-08-01T05:53:31;15.50;96.20
22645;DHT22;11489;50.834;6.752;2023-08-01T05:55:57;15.60;96.30
22645;DHT22;11489;50.834;6.752;2023-08-01T05:58:22;15.60;96.30
22645;DHT22;11489;50.834;6.752;2023-08-01T06:00:48;15.70;96.30
22645;DHT22;11489;50.834;6.752;2023-08-01T06:03:14;15.70;96.20
22645;DHT22;11489;50.834;6.752;2023-08-01T06:05:40;15.80;96.20
22645;DHT22;11489;50.834;6.752;2023-08-01T06:08:07;15.80;96.10
22645;DHT22;11489;50.834;6.752;2023-08-01T06:10:34;15.90;96.20
22645;DHT22;11489;50.834;6.752;2023-08-01T06:13:00;15.90;96.20
22645;DHT22;11489;50.834;6.752;2023-08-01T06:15:25;15.90;96.10
22645;DHT22;11489;50.834;6.752;2023-08-01T06:17:51;16.00;96.10
22645;DHT22;11489;50.834;6.752;2023-08-01T06:20:16;16.00;96.10
22645;DHT22;11489;50.834;6.752;2023-08-01T06:22:42;16.10;96.00
22645;DHT22;11489;50.834;6.752;2023-08-01T06:25:09;16.10;96.10
22645;DHT22;11489;50.834;6.752;2023-08-01T06:27:34;16.20;96.20
22645;DHT22;11489;50.834;6.752;2023-08-01T06:30:00;16.20;96.20
22645;DHT22;11489;50.834;6.752;2023-08-01T06:32:26;16.30;96.20
22645;DHT22;11489;50.834;6.752;2023-08-01T06:34:52;16.40;96.00
22645;DHT22;11489;50.834;6.752;2023-08-01T06:37:17;16.50;95.90
22645;DHT22;11489;50.834;6.752;2023-08-01T06:39:43;16.50;95.60
22645;DHT22;11489;50.834;6.752;2023-08-01T06:42:09;16.50;95.50
22645;DHT22;11489;50.834;6.752;2023-08-01T06:44:35;16.50;95.90
22645;DHT22;11489;50.834;6.752;2023-08-01T06:47:00;16.60;96.00
22645;DHT22;11489;50.834;6.752;2023-08-01T06:49:26;16.70;96.00
22645;DHT22;11489;50.834;6.752;2023-08-01T06:51:51;16.80;95.90
22645;DHT22;11489;50.834;6.752;2023-08-01T06:54:17;16.80;95.90
22645;DHT22;11489;50.834;6.752;2023-08-01T06:56:43;16.90;95.90
22645;DHT22;11489;50.834;6.752;2023-08-01T06:59:16;17.00;96.00
22645;DHT22;11489;50.834;6.752;2023-08-01T07:01:43;17.00;95.90
22645;DHT22;11489;50.834;6.752;2023-08-01T07:04:10;17.10;96.00
22645;DHT22;11489;50.834;6.752;2023-08-01T07:06:36;17.20;95.80
22645;DHT22;11489;50.834;6.752;2023-08-01T07:09:01;17.30;95.70
22645;DHT22;11489;50.834;6.752;2023-08-01T07:11:27;17.30;95.50
22645;DHT22;11489;50.834;6.752;2023-08-01T07:13:53;17.40;95.60
22645;DHT22;11489;50.834;6.752;2023-08-01T07:16:18;17.40;95.30
22645;DHT22;11489;50.834;6.752;2023-08-01T07:18:44;17.50;95.40
22645;DHT22;11489;50.834;6.752;2023-08-01T07:21:10;17.50;95.50
22645;DHT22;11489;50.834;6.752;2023-08-01T07:23:36;17.60;95.90
22645;DHT22;11489;50.834;6.752;2023-08-01T07:26:02;17.70;95.90
22645;DHT22;11489;50.834;6.752;2023-08-01T07:28:28;17.80;95.60
22645;DHT22;11489;50.834;6.752;2023-08-01T07:31:01;17.90;95.60
22645;DHT22;11489;50.834;6.752;2023-08-01T07:33:27;17.90;94.80
22645;DHT22;11489;50.834;6.752;2023-08-01T07:35:53;18.10;95.20
22645;DHT22;11489;50.834;6.752;2023-08-01T07:38:18;18.10;94.90
22645;DHT22;11489;50.834;6.752;2023-08-01T07:40:44;18.10;94.70
22645;DHT22;11489;50.834;6.752;2023-08-01T07:43:10;18.10;94.70
22645;DHT22;11489;50.834;6.752;2023-08-01T07:45:36;18.10;94.80
22645;DHT22;11489;50.834;6.752;2023-08-01T07:48:02;18.10;94.80
22645;DHT22;11489;50.834;6.752;2023-08-01T07:50:28;18.20;95.00
22645;DHT22;11489;50.834;6.752;2023-08-01T07:52:53;18.20;95.40
22645;DHT22;11489;50.834;6.752;2023-08-01T07:55:19;18.30;95.60
22645;DHT22;11489;50.834;6.752;2023-08-01T07:57:46;18.40;95.70
22645;DHT22;11489;50.834;6.752;2023-08-01T08:00:13;18.50;95.80
22645;DHT22;11489;50.834;6.752;2023-08-01T08:02:39;18.70;95.90
22645;DHT22;11489;50.834;6.752;2023-08-01T08:05:04;18.80;95.90
22645;DHT22;11489;50.834;6.752;2023-08-01T08:07:31;19.00;96.00
22645;DHT22;11489;50.834;6.752;2023-08-01T08:09:56;19.10;95.60
22645;DHT22;11489;50.834;6.752;2023-08-01T08:12:23;19.20;95.70
22645;DHT22;11489;50.834;6.752;2023-08-01T08:14:48;19.30;95.20
22645;DHT22;11489;50.834;6.752;2023-08-01T08:17:14;19.40;95.10
22645;DHT22;11489;50.834;6.752;2023-08-01T08:19:41;19.50;94.90
22645;DHT22;11489;50.834;6.752;2023-08-01T08:22:06;19.60;95.50
22645;DHT22;11489;50.834;6.752;2023-08-01T08:24:32;19.80;95.60
22645;DHT22;11489;50.834;6.752;2023-08-01T08:26:58;19.90;95.60
22645;DHT22;11489;50.834;6.752;2023-08-01T08:29:24;20.10;95.20
22645;DHT22;11489;50.834;6.752;2023-08-01T08:31:50;20.30;94.70
22645;DHT22;11489;50.834;6.752;2023-08-01T08:34:15;20.30;93.80
22645;DHT22;11489;50.834;6.752;2023-08-01T08:36:41;20.40;93.60
22645;DHT22;11489;50.834;6.752;2023-08-01T08:39:07;20.40;93.60
22645;DHT22;11489;50.834;6.752;2023-08-01T08:41:37;20.40;93.70
22645;DHT22;11489;50.834;6.752;2023-08-01T08:44:07;20.50;93.20
22645;DHT22;11489;50.834;6.752;2023-08-01T08:46:34;20.50;93.10
22645;DHT22;11489;50.834;6.752;2023-08-01T08:49:01;20.60;93.60
22645;DHT22;11489;50.834;6.752;2023-08-01T08:51:28;20.70;93.80
22645;DHT22;11489;50.834;6.752;2023-08-01T08:53:56;20.80;93.40
22645;DHT22;11489;50.834;6.752;2023-08-01T08:56:23;20.80;93.60
22645;DHT22;11489;50.834;6.752;2023-08-01T08:58:48;21.00;93.90
22645;DHT22;11489;50.834;6.752;2023-08-01T09:01:15;21.20;93.90
22645;DHT22;11489;50.834;6.752;2023-08-01T09:03:41;21.30;93.00
22645;DHT22;11489;50.834;6.752;2023-08-01T09:06:16;21.40;92.60
22645;DHT22;11489;50.834;6.752;2023-08-01T09:08:50;21.40;91.20
22645;DHT22;11489;50.834;6.752;2023-08-01T09:11:17;21.40;91.30
22645;DHT22;11489;50.834;6.752;2023-08-01T09:13:43;21.40;92.00
22645;DHT22;11489;50.834;6.752;2023-08-01T09:16:09;21.40;92.20
22645;DHT22;11489;50.834;6.752;2023-08-01T09:18:46;21.40;92.20
22645;DHT22;11489;50.834;6.752;2023-08-01T09:21:11;21.50;92.30
22645;DHT22;11489;50.834;6.752;2023-08-01T09:23:37;21.50;91.80
22645;DHT22;11489;50.834;6.752;2023-08-01T09:26:13;21.50;91.70
22645;DHT22;11489;50.834;6.752;2023-08-01T09:28:38;21.50;90.10
22645;DHT22;11489;50.834;6.752;2023-08-01T09:31:04;21.50;91.20
22645;DHT22;11489;50.834;6.752;2023-08-01T09:33:40;21.50;91.30
22645;DHT22;11489;50.834;6.752;2023-08-01T09:36:07;21.60;90.80
22645;DHT22;11489;50.834;6.752;2023-08-01T09:38:37;21.80;91.80
22645;DHT22;11489;50.834;6.752;2023-08-01T09:41:06;21.80;90.80
22645;DHT22;11489;50.834;6.752;2023-08-01T09:43:35;21.90;91.10
22645;DHT22;11489;50.834;6.752;2023-08-01T09:46:01;22.00;90.90
22645;DHT22;11489;50.834;6.752;2023-08-01T09:48:29;22.10;91.30
22645;DHT22;11489;50.834;6.752;2023-08-01T09:51:14;22.20;91.10
22645;DHT22;11489;50.834;6.752;2023-08-01T09:56:15;22.40;89.80
22645;DHT22;11489;50.834;6.752;2023-08-01T09:58:43;22.50;90.70
22645;DHT22;11489;50.834;6.752;2023-08-01T10:01:10;22.70;90.60
22645;DHT22;11489;50.834;6.752;2023-08-01T10:03:36;22.80;91.10
22645;DHT22;11489;50.834;6.752;2023-08-01T10:06:02;23.00;90.80
22645;DHT22;11489;50.834;6.752;2023-08-01T10:08:29;23.10;90.20
22645;DHT22;11489;50.834;6.752;2023-08-01T10:10:54;23.10;87.70
22645;DHT22;11489;50.834;6.752;2023-08-01T10:13:23;23.20;88.70
22645;DHT22;11489;50.834;6.752;2023-08-01T10:15:51;23.20;88.10
22645;DHT22;11489;50.834;6.752;2023-08-01T10:18:17;23.30;89.80
22645;DHT22;11489;50.834;6.752;2023-08-01T10:20:44;23.40;90.50
22645;DHT22;11489;50.834;6.752;2023-08-01T10:23:10;23.60;90.40
22645;DHT22;11489;50.834;6.752;2023-08-01T10:25:37;23.80;88.70
22645;DHT22;11489;50.834;6.752;2023-08-01T10:28:05;23.90;86.90
22645;DHT22;11489;50.834;6.752;2023-08-01T10:30:31;24.00;87.30
22645;DHT22;11489;50.834;6.752;2023-08-01T10:32:59;24.10;88.40
22645;DHT22;11489;50.834;6.752;2023-08-01T10:35:39;24.20;87.80
22645;DHT22;11489;50.834;6.752;2023-08-01T10:38:11;24.40;83.30
22645;DHT22;11489;50.834;6.752;2023-08-01T10:40:40;24.50;86.00
22645;DHT22;11489;50.834;6.752;2023-08-01T10:43:19;24.60;85.80
22645;DHT22;11489;50.834;6.752;2023-08-01T10:45:45;24.60;81.90
22645;DHT22;11489;50.834;6.752;2023-08-01T10:48:11;24.60;85.60
22645;DHT22;11489;50.834;6.752;2023-08-01T10:50:37;24.70;85.50
22645;DHT22;11489;50.834;6.752;2023-08-01T10:53:06;24.70;84.60
22645;DHT22;11489;50.834;6.752;2023-08-01T10:55:43;24.60;83.00
22645;DHT22;11489;50.834;6.752;2023-08-01T10:58:09;24.60;81.00
22645;DHT22;11489;50.834;6.752;2023-08-01T11:00:35;24.60;85.40
22645;DHT22;11489;50.834;6.752;2023-08-01T11:03:01;24.70;85.10
22645;DHT22;11489;50.834;6.752;2023-08-01T11:05:26;24.80;84.90
22645;DHT22;11489;50.834;6.752;2023-08-01T11:07:55;24.90;84.20
22645;DHT22;11489;50.834;6.752;2023-08-01T11:10:25;25.00;83.10
22645;DHT22;11489;50.834;6.752;2023-08-01T11:12:52;24.90;82.90
22645;DHT22;11489;50.834;6.752;2023-08-01T11:15:19;25.00;83.00
22645;DHT22;11489;50.834;6.752;2023-08-01T11:17:49;25.00;81.80
22645;DHT22;11489;50.834;6.752;2023-08-01T11:20:16;25.00;79.70
22645;DHT22;11489;50.834;6.752;2023-08-01T11:22:54;24.90;81.00
22645;DHT22;11489;50.834;6.752;2023-08-01T11:25:40;24.80;77.40
22645;DHT22;11489;50.834;6.752;2023-08-01T11:28:08;24.60;76.70
22645;DHT22;11489;50.834;6.752;2023-08-01T11:30:34;24.50;80.50
22645;DHT22;11489;50.834;6.752;2023-08-01T11:33:01;24.40;80.40
22645;DHT22;11489;50.834;6.752;2023-08-01T11:35:28;24.20;79.10
22645;DHT22;11489;50.834;6.752;2023-08-01T11:37:55;24.10;79.00
22645;DHT22;11489;50.834;6.752;2023-08-01T11:40:22;23.80;78.30
22645;DHT22;11489;50.834;6.752;2023-08-01T11:42:49;23.50;77.00
22645;DHT22;11489;50.834;6.752;2023-08-01T11:45:18;23.10;77.20
22645;DHT22;11489;50.834;6.752;2023-08-01T11:47:47;22.60;78.10
22645;DHT22;11489;50.834;6.752;2023-08-01T11:50:14;22.20;80.80
22645;DHT22;11489;50.834;6.752;2023-08-01T11:52:39;21.90;84.40
22645;DHT22;11489;50.834;6.752;2023-08-01T11:55:06;21.70;85.60
22645;DHT22;11489;50.834;6.752;2023-08-01T11:57:31;21.60;87.10
22645;DHT22;11489;50.834;6.752;2023-08-01T11:59:57;21.60;88.30
22645;DHT22;11489;50.834;6.752;2023-08-01T12:02:23;21.60;88.80
22645;DHT22;11489;50.834;6.752;2023-08-01T12:04:49;21.70;89.10
22645;DHT22;11489;50.834;6.752;2023-08-01T12:07:15;21.80;88.20
22645;DHT22;11489;50.834;6.752;2023-08-01T12:09:42;21.80;87.50
22645;DHT22;11489;50.834;6.752;2023-08-01T12:12:09;21.90;87.20
22645;DHT22;11489;50.834;6.752;2023-08-01T12:14:39;21.80;86.10
22645;DHT22;11489;50.834;6.752;2023-08-01T12:17:05;21.70;84.50
22645;DHT22;11489;50.834;6.752;2023-08-01T12:19:31;21.70;84.80
22645;DHT22;11489;50.834;6.752;2023-08-01T12:21:59;21.50;84.50
22645;DHT22;11489;50.834;6.752;2023-08-01T12:24:25;21.40;83.80
22645;DHT22;11489;50.834;6.752;2023-08-01T12:26:50;21.20;84.30
22645;DHT22;11489;50.834;6.752;2023-08-01T12:29:16;21.00;84.50
22645;DHT22;11489;50.834;6.752;2023-08-01T12:31:42;20.80;86.00
22645;DHT22;11489;50.834;6.752;2023-08-01T12:34:08;20.70;87.70
22645;DHT22;11489;50.834;6.752;2023-08-01T12:36:33;20.60;88.80
22645;DHT22;11489;50.834;6.752;2023-08-01T12:38:59;20.60;89.50
22645;DHT22;11489;50.834;6.752;2023-08-01T12:41:25;20.60;89.40
22645;DHT22;11489;50.834;6.752;2023-08-01T12:43:50;20.70;88.80
22645;DHT22;11489;50.834;6.752;2023-08-01T12:46:16;20.70;88.20
22645;DHT22;11489;50.834;6.752;2023-08-01T12:48:42;20.70;87.90
22645;DHT22;11489;50.834;6.752;2023-08-01T12:51:08;20.70;87.90
22645;DHT22;11489;50.834;6.752;2023-08-01T12:53:34;20.70;88.30
22645;DHT22;11489;50.834;6.752;2023-08-01T12:55:59;20.70;88.50
22645;DHT22;11489;50.834;6.752;2023-08-01T12:58:25;20.80;88.90
22645;DHT22;11489;50.834;6.752;2023-08-01T13:00:51;20.80;88.60
22645;DHT22;11489;50.834;6.752;2023-08-01T13:03:16;21.00;88.80
22645;DHT22;11489;50.834;6.752;2023-08-01T13:05:42;21.10;89.20
22645;DHT22;11489;50.834;6.752;2023-08-01T13:08:08;21.20;89.60
22645;DHT22;11489;50.834;6.752;2023-08-01T13:10:36;21.40;89.70
22645;DHT22;11489;50.834;6.752;2023-08-01T13:13:03;21.60;89.20
22645;DHT22;11489;50.834;6.752;2023-08-01T13:15:29;21.80;88.70
22645;DHT22;11489;50.834;6.752;2023-08-01T13:17:55;22.00;87.50
22645;DHT22;11489;50.834;6.752;2023-08-01T13:20:21;22.20;86.90
22645;DHT22;11489;50.834;6.752;2023-08-01T13:22:49;22.30;86.30
22645;DHT22;11489;50.834;6.752;2023-08-01T13:25:15;22.40;85.50
22645;DHT22;11489;50.834;6.752;2023-08-01T13:27:41;22.60;86.00
22645;DHT22;11489;50.834;6.752;2023-08-01T13:30:07;22.70;86.00
22645;DHT22;11489;50.834;6.752;2023-08-01T13:32:34;22.90;84.70
22645;DHT22;11489;50.834;6.752;2023-08-01T13:34:59;23.10;85.00
22645;DHT22;11489;50.834;6.752;2023-08-01T13:37:26;23.30;84.60
22645;DHT22;11489;50.834;6.752;2023-08-01T13:39:52;23.50;83.40
22645;DHT22;11489;50.834;6.752;2023-08-01T13:42:17;23.50;82.40
22645;DHT22;11489;50.834;6.752;2023-08-01T13:44:43;23.50;82.00
22645;DHT22;11489;50.834;6.752;2023-08-01T13:47:09;23.50;81.90
22645;DHT22;11489;50.834;6.752;2023-08-01T13:49:34;23.50;81.00
22645;DHT22;11489;50.834;6.752;2023-08-01T13:52:00;23.40;79.70
22645;DHT22;11489;50.834;6.752;2023-08-01T13:54:26;23.20;79.80
22645;DHT22;11489;50.834;6.752;2023-08-01T13:56:52;23.10;79.50
22645;DHT22;11489;50.834;6.752;2023-08-01T13:59:19;22.90;79.50
22645;DHT22;11489;50.834;6.752;2023-08-01T14:01:46;22.70;79.10
22645;DHT22;11489;50.834;6.752;2023-08-01T14:04:11;22.50;78.60
22645;DHT22;11489;50.834;6.752;2023-08-01T14:06:42;22.10;78.20
22645;DHT22;11489;50.834;6.752;2023-08-01T14:09:10;21.80;78.20
22645;DHT22;11489;50.834;6.752;2023-08-01T14:11:37;21.50;78.90
22645;DHT22;11489;50.834;6.752;2023-08-01T14:14:03;21.10;80.40
22645;DHT22;11489;50.834;6.752;2023-08-01T14:16:29;20.90;82.00
22645;DHT22;11489;50.834;6.752;2023-08-01T14:18:55;20.80;83.10
22645;DHT22;11489;50.834;6.752;2023-08-01T14:21:21;20.60;84.20
22645;DHT22;11489;50.834;6.752;2023-08-01T14:23:46;20.60;85.10
22645;DHT22;11489;50.834;6.752;2023-08-01T14:26:13;20.60;85.70
22645;DHT22;11489;50.834;6.752;2023-08-01T14:28:38;20.60;85.80
22645;DHT22;11489;50.834;6.752;2023-08-01T14:31:04;20.70;86.00
22645;DHT22;11489;50.834;6.752;2023-08-01T14:33:30;20.70;87.10
22645;DHT22;11489;50.834;6.752;2023-08-01T14:35:56;20.90;88.50
22645;DHT22;11489;50.834;6.752;2023-08-01T14:38:22;21.10;88.80
22645;DHT22;11489;50.834;6.752;2023-08-01T14:40:48;21.50;88.80
22645;DHT22;11489;50.834;6.752;2023-08-01T14:43:13;21.70;87.00
22645;DHT22;11489;50.834;6.752;2023-08-01T14:45:40;21.90;85.30
22645;DHT22;11489;50.834;6.752;2023-08-01T14:48:07;22.10;85.00
22645;DHT22;11489;50.834;6.752;2023-08-01T14:50:33;22.10;84.50
22645;DHT22;11489;50.834;6.752;2023-08-01T14:52:59;22.10;84.00
22645;DHT22;11489;50.834;6.752;2023-08-01T14:55:25;22.10;83.80
22645;DHT22;11489;50.834;6.752;2023-08-01T14:57:50;22.00;81.80
22645;DHT22;11489;50.834;6.752;2023-08-01T15:00:16;21.90;81.20
22645;DHT22;11489;50.834;6.752;2023-08-01T15:02:42;21.90;81.40
22645;DHT22;11489;50.834;6.752;2023-08-01T15:05:08;21.70;81.40
22645;DHT22;11489;50.834;6.752;2023-08-01T15:07:33;21.70;81.40
22645;DHT22;11489;50.834;6.752;2023-08-01T15:09:59;21.50;81.40
22645;DHT22;11489;50.834;6.752;2023-08-01T15:12:25;21.50;80.90
22645;DHT22;11489;50.834;6.752;2023-08-01T15:14:55;21.30;80.30
22645;DHT22;11489;50.834;6.752;2023-08-01T15:17:22;21.10;79.60
22645;DHT22;11489;50.834;6.752;2023-08-01T15:19:48;20.80;80.60
22645;DHT22;11489;50.834;6.752;2023-08-01T15:22:15;20.60;81.50
22645;DHT22;11489;50.834;6.752;2023-08-01T15:24:41;20.40;82.50
22645;DHT22;11489;50.834;6.752;2023-08-01T15:27:07;20.20;83.20
22645;DHT22;11489;50.834;6.752;2023-08-01T15:29:32;20.10;84.00